sensor_id;sensor_type;location;lat;lon;timestamp;P1;durP1;ratioP1;P2;durP2;ratioP2
21018;SDS011;10667;51.056;3.732;2023-04-15T00:02:00;4.25;;;3.40;;
21018;SDS011;10667;51.056;3.732;2023-04-15T00:04:26;6.60;;;3.47;;
21018;SDS011;10667;51.056;3.732;2023-04-15T00:06:52;3.13;;;2.65;;
21018;SDS011;10667;51.056;3.732;2023-04-15T00:09:18;3.40;;;3.10;;
21018;SDS011;10667;51.056;3.732;2023-04-15T00:11:44;3.50;;;3.13;;
21018;SDS011;10667;51.056;3.732;2023-04-15T00:14:13;3.85;;;3.30;;
21018;SDS011;10667;51.056;3.732;2023-04-15T00:16:39;4.25;;;2.83;;
21018;SDS011;10667;51.056;3.732;2023-04-15T00:19:05;3.40;;;2.80;;
21018;SDS011;10667;51.056;3.732;2023-04-15T00:21:31;3.85;;;2.90;;
21018;SDS011;10667;51.056;3.732;2023-04-15T00:23:56;5.07;;;3.22;;
21018;SDS011;10667;51.056;3.732;2023-04-15T00:26:22;5.38;;;2.90;;
21018;SDS011;10667;51.056;3.732;2023-04-15T00:28:48;4.05;;;3.10;;
21018;SDS011;10667;51.056;3.732;2023-04-15T00:31:14;4.95;;;4.00;;
21018;SDS011;10667;51.056;3.732;2023-04-15T00:33:40;4.00;;;3.60;;
21018;SDS011;10667;51.056;3.732;2023-04-15T00:36:06;5.40;;;4.00;;
21018;SDS011;10667;51.056;3.732;2023-04-15T00:38:32;5.90;;;3.90;;
21018;SDS011;10667;51.056;3.732;2023-04-15T00:40:58;7.10;;;4.60;;
21018;SDS011;10667;51.056;3.732;2023-04-15T00:43:24;4.40;;;4.00;;
21018;SDS011;10667;51.056;3.732;2023-04-15T00:45:50;4.25;;;3.85;;
21018;SDS011;10667;51.056;3.732;2023-04-15T00:48:18;4.78;;;4.28;;
21018;SDS011;10667;51.056;3.732;2023-04-15T00:50:45;6.65;;;4.32;;
21018;SDS011;10667;51.056;3.732;2023-04-15T00:53:10;5.90;;;4.50;;
21018;SDS011;10667;51.056;3.732;2023-04-15T00:55:36;6.38;;;4.82;;
21018;SDS011;10667;51.056;3.732;2023-04-15T00:58:02;5.25;;;4.55;;
21018;SDS011;10667;51.056;3.732;2023-04-15T01:00:28;6.05;;;4.80;;
21018;SDS011;10667;51.056;3.732;2023-04-15T01:02:54;9.48;;;5.35;;
21018;SDS011;10667;51.056;3.732;2023-04-15T01:05:20;6.75;;;5.05;;
21018;SDS011;10667;51.056;3.732;2023-04-15T01:07:46;7.03;;;5.28;;
21018;SDS011;10667;51.056;3.732;2023-04-15T01:10:12;6.63;;;5.38;;
21018;SDS011;10667;51.056;3.732;2023-04-15T01:12:38;5.82;;;4.82;;
21018;SDS011;10667;51.056;3.732;2023-04-15T01:15:04;6.50;;;5.10;;
21018;SDS011;10667;51.056;3.732;2023-04-15T01:17:30;7.28;;;4.88;;
21018;SDS011;10667;51.056;3.732;2023-04-15T01:19:56;5.93;;;4.50;;
21018;SDS011;10667;51.056;3.732;2023-04-15T01:22:23;6.15;;;5.00;;
21018;SDS011;10667;51.056;3.732;2023-04-15T01:24:53;8.85;;;5.70;;
21018;SDS011;10667;51.056;3.732;2023-04-15T01:27:23;9.32;;;6.07;;
21018;SDS011;10667;51.056;3.732;2023-04-15T01:29:49;9.45;;;6.80;;
21018;SDS011;10667;51.056;3.732;2023-04-15T01:32:14;7.82;;;6.18;;
21018;SDS011;10667;51.056;3.732;2023-04-15T01:34:40;7.97;;;6.35;;
21018;SDS011;10667;51.056;3.732;2023-04-15T01:37:06;7.70;;;6.25;;
21018;SDS011;10667;51.056;3.732;2023-04-15T01:39:31;8.43;;;6.80;;
21018;SDS011;10667;51.056;3.732;2023-04-15T01:41:57;9.15;;;5.97;;
21018;SDS011;10667;51.056;3.732;2023-04-15T01:44:23;7.80;;;5.93;;
21018;SDS011;10667;51.056;3.732;2023-04-15T01:46:48;11.68;;;6.03;;
21018;SDS011;10667;51.056;3.732;2023-04-15T01:49:14;7.75;;;5.38;;
21018;SDS011;10667;51.056;3.732;2023-04-15T01:51:40;5.85;;;5.35;;
21018;SDS011;10667;51.056;3.732;2023-04-15T01:54:06;6.47;;;5.75;;
21018;SDS011;10667;51.056;3.732;2023-04-15T01:56:32;6.57;;;5.68;;
21018;SDS011;10667;51.056;3.732;2023-04-15T01:58:57;8.70;;;5.85;;
21018;SDS011;10667;51.056;3.732;2023-04-15T02:01:23;6.45;;;5.85;;
21018;SDS011;10667;51.056;3.732;2023-04-15T02:03:49;9.02;;;6.30;;
21018;SDS011;10667;51.056;3.732;2023-04-15T02:06:15;8.23;;;6.05;;
21018;SDS011;10667;51.056;3.732;2023-04-15T02:08:41;7.95;;;6.88;;
21018;SDS011;10667;51.056;3.732;2023-04-15T02:11:07;8.15;;;5.75;;
21018;SDS011;10667;51.056;3.732;2023-04-15T02:13:33;6.55;;;5.88;;
21018;SDS011;10667;51.056;3.732;2023-04-15T02:15:58;8.00;;;6.22;;
21018;SDS011;10667;51.056;3.732;2023-04-15T02:18:25;8.57;;;6.68;;
21018;SDS011;10667;51.056;3.732;2023-04-15T02:20:51;7.38;;;6.40;;
21018;SDS011;10667;51.056;3.732;2023-04-15T02:23:17;7.20;;;6.50;;
21018;SDS011;10667;51.056;3.732;2023-04-15T02:25:42;9.18;;;6.85;;
21018;SDS011;10667;51.056;3.732;2023-04-15T02:28:08;9.68;;;6.95;;
21018;SDS011;10667;51.056;3.732;2023-04-15T02:30:34;7.35;;;6.40;;
21018;SDS011;10667;51.056;3.732;2023-04-15T02:33:00;7.22;;;6.53;;
21018;SDS011;10667;51.056;3.732;2023-04-15T02:35:25;7.68;;;6.75;;
21018;SDS011;10667;51.056;3.732;2023-04-15T02:37:51;7.80;;;6.75;;
21018;SDS011;10667;51.056;3.732;2023-04-15T02:40:17;9.43;;;7.18;;
21018;SDS011;10667;51.056;3.732;2023-04-15T02:42:43;8.32;;;6.88;;
21018;SDS011;10667;51.056;3.732;2023-04-15T02:45:09;10.55;;;6.93;;
21018;SDS011;10667;51.056;3.732;2023-04-15T02:47:38;9.05;;;7.43;;
21018;SDS011;10667;51.056;3.732;2023-04-15T02:50:08;11.85;;;7.05;;
21018;SDS011;10667;51.056;3.732;2023-04-15T02:52:36;11.52;;;7.28;;
21018;SDS011;10667;51.056;3.732;2023-04-15T02:55:04;8.95;;;7.63;;
21018;SDS011;10667;51.056;3.732;2023-04-15T02:57:30;9.70;;;7.68;;
21018;SDS011;10667;51.056;3.732;2023-04-15T02:59:56;11.93;;;8.40;;
21018;SDS011;10667;51.056;3.732;2023-04-15T03:02:22;10.45;;;8.43;;
21018;SDS011;10667;51.056;3.732;2023-04-15T03:04:48;10.95;;;8.65;;
21018;SDS011;10667;51.056;3.732;2023-04-15T03:07:13;12.07;;;10.10;;
21018;SDS011;10667;51.056;3.732;2023-04-15T03:09:39;12.05;;;10.35;;
21018;SDS011;10667;51.056;3.732;2023-04-15T03:12:05;12.82;;;10.45;;
21018;SDS011;10667;51.056;3.732;2023-04-15T03:14:31;14.57;;;10.85;;
21018;SDS011;10667;51.056;3.732;2023-04-15T03:16:56;16.38;;;11.23;;
21018;SDS011;10667;51.056;3.732;2023-04-15T03:19:23;17.00;;;11.05;;
21018;SDS011;10667;51.056;3.732;2023-04-15T03:21:49;15.20;;;10.77;;
21018;SDS011;10667;51.056;3.732;2023-04-15T03:24:16;17.60;;;11.73;;
21018;SDS011;10667;51.056;3.732;2023-04-15T03:26:42;15.68;;;12.02;;
21018;SDS011;10667;51.056;3.732;2023-04-15T03:29:07;18.98;;;12.43;;
21018;SDS011;10667;51.056;3.732;2023-04-15T03:31:33;16.95;;;13.82;;
21018;SDS011;10667;51.056;3.732;2023-04-15T03:33:59;19.95;;;13.68;;
21018;SDS011;10667;51.056;3.732;2023-04-15T03:36:25;22.50;;;16.33;;
21018;SDS011;10667;51.056;3.732;2023-04-15T03:38:53;20.27;;;15.00;;
21018;SDS011;10667;51.056;3.732;2023-04-15T03:41:20;22.20;;;15.15;;
21018;SDS011;10667;51.056;3.732;2023-04-15T03:43:45;21.20;;;15.77;;
21018;SDS011;10667;51.056;3.732;2023-04-15T03:46:11;19.25;;;15.18;;
21018;SDS011;10667;51.056;3.732;2023-04-15T03:48:37;22.95;;;16.00;;
21018;SDS011;10667;51.056;3.732;2023-04-15T03:51:02;21.58;;;16.85;;
21018;SDS011;10667;51.056;3.732;2023-04-15T03:53:28;22.75;;;16.85;;
21018;SDS011;10667;51.056;3.732;2023-04-15T03:55:53;22.98;;;17.50;;
21018;SDS011;10667;51.056;3.732;2023-04-15T03:58:19;25.67;;;18.17;;
21018;SDS011;10667;51.056;3.732;2023-04-15T04:00:45;25.17;;;19.67;;
21018;SDS011;10667;51.056;3.732;2023-04-15T04:03:10;28.65;;;19.33;;
21018;SDS011;10667;51.056;3.732;2023-04-15T04:05:36;33.45;;;21.90;;
21018;SDS011;10667;51.056;3.732;2023-04-15T04:08:03;31.38;;;21.95;;
21018;SDS011;10667;51.056;3.732;2023-04-15T04:10:28;31.50;;;22.08;;
21018;SDS011;10667;51.056;3.732;2023-04-15T04:12:54;32.45;;;22.52;;
21018;SDS011;10667;51.056;3.732;2023-04-15T04:15:20;38.33;;;24.02;;
21018;SDS011;10667;51.056;3.732;2023-04-15T04:17:45;29.40;;;19.73;;
21018;SDS011;10667;51.056;3.732;2023-04-15T04:20:11;28.02;;;20.02;;
21018;SDS011;10667;51.056;3.732;2023-04-15T04:22:37;31.45;;;18.92;;
21018;SDS011;10667;51.056;3.732;2023-04-15T04:25:06;33.03;;;18.65;;
21018;SDS011;10667;51.056;3.732;2023-04-15T04:27:32;27.70;;;17.92;;
21018;SDS011;10667;51.056;3.732;2023-04-15T04:29:58;32.00;;;18.60;;
21018;SDS011;10667;51.056;3.732;2023-04-15T04:32:24;25.88;;;17.27;;
21018;SDS011;10667;51.056;3.732;2023-04-15T04:34:50;25.25;;;17.75;;
21018;SDS011;10667;51.056;3.732;2023-04-15T04:37:16;30.58;;;18.52;;
21018;SDS011;10667;51.056;3.732;2023-04-15T04:39:41;22.52;;;17.25;;
21018;SDS011;10667;51.056;3.732;2023-04-15T04:42:07;25.85;;;18.17;;
21018;SDS011;10667;51.056;3.732;2023-04-15T04:44:33;24.00;;;17.23;;
21018;SDS011;10667;51.056;3.732;2023-04-15T04:46:58;25.33;;;16.20;;
21018;SDS011;10667;51.056;3.732;2023-04-15T04:49:24;21.05;;;15.18;;
21018;SDS011;10667;51.056;3.732;2023-04-15T04:51:50;25.55;;;15.55;;
21018;SDS011;10667;51.056;3.732;2023-04-15T04:54:16;22.63;;;15.13;;
21018;SDS011;10667;51.056;3.732;2023-04-15T04:56:42;26.27;;;15.02;;
21018;SDS011;10667;51.056;3.732;2023-04-15T04:59:07;21.05;;;14.77;;
21018;SDS011;10667;51.056;3.732;2023-04-15T05:01:33;22.75;;;15.80;;
21018;SDS011;10667;51.056;3.732;2023-04-15T05:03:59;22.50;;;14.90;;
21018;SDS011;10667;51.056;3.732;2023-04-15T05:06:25;20.48;;;15.20;;
21018;SDS011;10667;51.056;3.732;2023-04-15T05:08:51;20.23;;;14.55;;
21018;SDS011;10667;51.056;3.732;2023-04-15T05:11:17;21.70;;;13.98;;
21018;SDS011;10667;51.056;3.732;2023-04-15T05:13:42;22.92;;;13.82;;
21018;SDS011;10667;51.056;3.732;2023-04-15T05:16:08;20.13;;;13.25;;
21018;SDS011;10667;51.056;3.732;2023-04-15T05:18:34;20.02;;;13.13;;
21018;SDS011;10667;51.056;3.732;2023-04-15T05:21:00;18.20;;;12.65;;
21018;SDS011;10667;51.056;3.732;2023-04-15T05:23:26;18.25;;;11.93;;
21018;SDS011;10667;51.056;3.732;2023-04-15T05:25:52;21.00;;;12.23;;
21018;SDS011;10667;51.056;3.732;2023-04-15T05:28:18;18.17;;;11.07;;
21018;SDS011;10667;51.056;3.732;2023-04-15T05:30:43;18.95;;;10.93;;
21018;SDS011;10667;51.056;3.732;2023-04-15T05:33:09;16.30;;;11.45;;
21018;SDS011;10667;51.056;3.732;2023-04-15T05:35:35;15.10;;;10.57;;
21018;SDS011;10667;51.056;3.732;2023-04-15T05:38:02;13.30;;;10.20;;
21018;SDS011;10667;51.056;3.732;2023-04-15T05:40:29;13.30;;;9.93;;
21018;SDS011;10667;51.056;3.732;2023-04-15T05:42:55;16.30;;;10.90;;
21018;SDS011;10667;51.056;3.732;2023-04-15T05:45:21;17.10;;;11.75;;
21018;SDS011;10667;51.056;3.732;2023-04-15T05:47:46;18.50;;;11.95;;
21018;SDS011;10667;51.056;3.732;2023-04-15T05:50:14;21.77;;;12.40;;
21018;SDS011;10667;51.056;3.732;2023-04-15T05:52:40;18.63;;;13.52;;
21018;SDS011;10667;51.056;3.732;2023-04-15T05:55:06;22.13;;;13.45;;
21018;SDS011;10667;51.056;3.732;2023-04-15T05:57:32;26.23;;;13.50;;
21018;SDS011;10667;51.056;3.732;2023-04-15T05:59:58;24.55;;;13.05;;
21018;SDS011;10667;51.056;3.732;2023-04-15T06:02:23;25.50;;;13.75;;
21018;SDS011;10667;51.056;3.732;2023-04-15T06:04:49;21.10;;;13.73;;
21018;SDS011;10667;51.056;3.732;2023-04-15T06:07:14;20.25;;;13.48;;
21018;SDS011;10667;51.056;3.732;2023-04-15T06:09:40;20.55;;;12.23;;
21018;SDS011;10667;51.056;3.732;2023-04-15T06:12:06;19.35;;;12.63;;
21018;SDS011;10667;51.056;3.732;2023-04-15T06:14:37;18.20;;;11.15;;
21018;SDS011;10667;51.056;3.732;2023-04-15T06:17:04;17.90;;;11.75;;
21018;SDS011;10667;51.056;3.732;2023-04-15T06:19:30;13.63;;;10.82;;
21018;SDS011;10667;51.056;3.732;2023-04-15T06:21:56;16.00;;;10.82;;
21018;SDS011;10667;51.056;3.732;2023-04-15T06:24:22;18.25;;;11.68;;
21018;SDS011;10667;51.056;3.732;2023-04-15T06:26:48;22.23;;;11.23;;
21018;SDS011;10667;51.056;3.732;2023-04-15T06:29:13;19.65;;;11.15;;
21018;SDS011;10667;51.056;3.732;2023-04-15T06:31:39;17.30;;;11.60;;
21018;SDS011;10667;51.056;3.732;2023-04-15T06:34:05;20.40;;;11.15;;
21018;SDS011;10667;51.056;3.732;2023-04-15T06:36:31;18.50;;;11.25;;
21018;SDS011;10667;51.056;3.732;2023-04-15T06:38:57;19.40;;;11.25;;
21018;SDS011;10667;51.056;3.732;2023-04-15T06:41:22;19.08;;;11.50;;
21018;SDS011;10667;51.056;3.732;2023-04-15T06:43:48;18.80;;;11.18;;
21018;SDS011;10667;51.056;3.732;2023-04-15T06:46:14;16.30;;;11.05;;
21018;SDS011;10667;51.056;3.732;2023-04-15T06:48:39;16.15;;;10.93;;
21018;SDS011;10667;51.056;3.732;2023-04-15T06:51:05;22.67;;;12.70;;
21018;SDS011;10667;51.056;3.732;2023-04-15T06:53:31;20.17;;;11.95;;
21018;SDS011;10667;51.056;3.732;2023-04-15T06:55:57;18.63;;;11.43;;
21018;SDS011;10667;51.056;3.732;2023-04-15T06:58:22;19.83;;;12.85;;
21018;SDS011;10667;51.056;3.732;2023-04-15T07:00:48;22.90;;;12.75;;
21018;SDS011;10667;51.056;3.732;2023-04-15T07:03:14;20.95;;;12.00;;
21018;SDS011;10667;51.056;3.732;2023-04-15T07:05:39;17.52;;;11.70;;
21018;SDS011;10667;51.056;3.732;2023-04-15T07:08:05;21.65;;;12.23;;
21018;SDS011;10667;51.056;3.732;2023-04-15T07:10:32;20.52;;;12.48;;
21018;SDS011;10667;51.056;3.732;2023-04-15T07:12:58;21.63;;;12.35;;
21018;SDS011;10667;51.056;3.732;2023-04-15T07:15:24;20.05;;;12.95;;
21018;SDS011;10667;51.056;3.732;2023-04-15T07:17:49;22.52;;;12.07;;
21018;SDS011;10667;51.056;3.732;2023-04-15T07:20:15;17.23;;;11.45;;
21018;SDS011;10667;51.056;3.732;2023-04-15T07:22:41;23.48;;;12.07;;
21018;SDS011;10667;51.056;3.732;2023-04-15T07:25:06;19.38;;;11.32;;
21018;SDS011;10667;51.056;3.732;2023-04-15T07:27:33;19.15;;;11.88;;
21018;SDS011;10667;51.056;3.732;2023-04-15T07:29:58;24.80;;;14.05;;
21018;SDS011;10667;51.056;3.732;2023-04-15T07:32:24;25.60;;;14.57;;
21018;SDS011;10667;51.056;3.732;2023-04-15T07:34:50;25.13;;;15.10;;
21018;SDS011;10667;51.056;3.732;2023-04-15T07:37:15;33.05;;;15.05;;
21018;SDS011;10667;51.056;3.732;2023-04-15T07:39:41;25.33;;;13.93;;
21018;SDS011;10667;51.056;3.732;2023-04-15T07:42:07;26.08;;;13.07;;
21018;SDS011;10667;51.056;3.732;2023-04-15T07:44:33;25.90;;;12.43;;
21018;SDS011;10667;51.056;3.732;2023-04-15T07:46:59;24.17;;;12.27;;
21018;SDS011;10667;51.056;3.732;2023-04-15T07:49:26;31.23;;;14.38;;
21018;SDS011;10667;51.056;3.732;2023-04-15T07:51:52;32.63;;;16.38;;
21018;SDS011;10667;51.056;3.732;2023-04-15T07:54:18;56.92;;;24.77;;
21018;SDS011;10667;51.056;3.732;2023-04-15T07:56:43;59.92;;;26.77;;
21018;SDS011;10667;51.056;3.732;2023-04-15T07:59:09;66.75;;;27.88;;
21018;SDS011;10667;51.056;3.732;2023-04-15T08:01:35;64.13;;;27.40;;
21018;SDS011;10667;51.056;3.732;2023-04-15T08:04:01;69.55;;;30.42;;
21018;SDS011;10667;51.056;3.732;2023-04-15T08:06:27;64.28;;;28.10;;
21018;SDS011;10667;51.056;3.732;2023-04-15T08:08:53;48.72;;;24.50;;
21018;SDS011;10667;51.056;3.732;2023-04-15T08:11:20;76.60;;;34.13;;
21018;SDS011;10667;51.056;3.732;2023-04-15T08:13:47;73.85;;;32.03;;
21018;SDS011;10667;51.056;3.732;2023-04-15T08:18:47;63.22;;;28.40;;
21018;SDS011;10667;51.056;3.732;2023-04-15T08:21:13;60.13;;;26.92;;
21018;SDS011;10667;51.056;3.732;2023-04-15T08:23:40;35.28;;;20.52;;
21018;SDS011;10667;51.056;3.732;2023-04-15T08:26:07;34.00;;;19.13;;
21018;SDS011;10667;51.056;3.732;2023-04-15T08:28:33;60.20;;;29.45;;
21018;SDS011;10667;51.056;3.732;2023-04-15T08:31:00;39.53;;;20.80;;
21018;SDS011;10667;51.056;3.732;2023-04-15T08:33:25;53.25;;;25.70;;
21018;SDS011;10667;51.056;3.732;2023-04-15T08:35:52;50.08;;;24.15;;
21018;SDS011;10667;51.056;3.732;2023-04-15T08:38:18;43.50;;;21.33;;
21018;SDS011;10667;51.056;3.732;2023-04-15T08:40:44;41.33;;;21.70;;
21018;SDS011;10667;51.056;3.732;2023-04-15T08:43:32;41.22;;;23.23;;
21018;SDS011;10667;51.056;3.732;2023-04-15T08:45:59;46.20;;;24.35;;
21018;SDS011;10667;51.056;3.732;2023-04-15T08:48:31;51.90;;;24.05;;
21018;SDS011;10667;51.056;3.732;2023-04-15T08:50:58;49.63;;;23.65;;
21018;SDS011;10667;51.056;3.732;2023-04-15T08:53:24;47.65;;;23.52;;
21018;SDS011;10667;51.056;3.732;2023-04-15T08:55:53;48.40;;;24.27;;
21018;SDS011;10667;51.056;3.732;2023-04-15T08:58:21;61.05;;;27.58;;
21018;SDS011;10667;51.056;3.732;2023-04-15T09:00:49;48.25;;;25.25;;
21018;SDS011;10667;51.056;3.732;2023-04-15T09:03:15;54.92;;;27.02;;
21018;SDS011;10667;51.056;3.732;2023-04-15T09:05:41;56.92;;;27.30;;
21018;SDS011;10667;51.056;3.732;2023-04-15T09:08:07;45.03;;;22.67;;
21018;SDS011;10667;51.056;3.732;2023-04-15T09:10:33;48.72;;;25.17;;
21018;SDS011;10667;51.056;3.732;2023-04-15T09:12:59;42.83;;;22.40;;
21018;SDS011;10667;51.056;3.732;2023-04-15T09:15:26;31.20;;;17.33;;
21018;SDS011;10667;51.056;3.732;2023-04-15T09:17:53;39.63;;;18.77;;
21018;SDS011;10667;51.056;3.732;2023-04-15T09:20:19;29.23;;;15.63;;
21018;SDS011;10667;51.056;3.732;2023-04-15T09:22:45;35.10;;;17.73;;
21018;SDS011;10667;51.056;3.732;2023-04-15T09:27:52;42.63;;;19.50;;
21018;SDS011;10667;51.056;3.732;2023-04-15T09:30:19;43.65;;;20.55;;
21018;SDS011;10667;51.056;3.732;2023-04-15T09:32:48;41.38;;;21.98;;
21018;SDS011;10667;51.056;3.732;2023-04-15T09:35:19;54.97;;;26.25;;
21018;SDS011;10667;51.056;3.732;2023-04-15T09:37:45;46.00;;;24.60;;
21018;SDS011;10667;51.056;3.732;2023-04-15T09:40:11;48.08;;;24.73;;
21018;SDS011;10667;51.056;3.732;2023-04-15T09:42:56;43.60;;;22.33;;
21018;SDS011;10667;51.056;3.732;2023-04-15T09:45:22;48.15;;;22.70;;
21018;SDS011;10667;51.056;3.732;2023-04-15T09:47:48;41.03;;;21.13;;
21018;SDS011;10667;51.056;3.732;2023-04-15T09:50:17;29.63;;;16.38;;
21018;SDS011;10667;51.056;3.732;2023-04-15T09:52:44;23.55;;;14.45;;
21018;SDS011;10667;51.056;3.732;2023-04-15T09:55:10;33.33;;;19.33;;
21018;SDS011;10667;51.056;3.732;2023-04-15T09:57:37;56.47;;;27.95;;
21018;SDS011;10667;51.056;3.732;2023-04-15T10:00:05;56.28;;;28.38;;
21018;SDS011;10667;51.056;3.732;2023-04-15T10:02:36;66.50;;;30.70;;
21018;SDS011;10667;51.056;3.732;2023-04-15T10:05:04;65.07;;;31.33;;
21018;SDS011;10667;51.056;3.732;2023-04-15T10:07:31;51.90;;;25.77;;
21018;SDS011;10667;51.056;3.732;2023-04-15T10:09:58;41.40;;;22.15;;
21018;SDS011;10667;51.056;3.732;2023-04-15T10:12:27;33.58;;;19.65;;
21018;SDS011;10667;51.056;3.732;2023-04-15T10:14:57;36.95;;;21.52;;
21018;SDS011;10667;51.056;3.732;2023-04-15T10:17:25;40.60;;;21.48;;
21018;SDS011;10667;51.056;3.732;2023-04-15T10:19:59;40.83;;;21.92;;
21018;SDS011;10667;51.056;3.732;2023-04-15T10:22:26;31.02;;;19.70;;
21018;SDS011;10667;51.056;3.732;2023-04-15T10:24:52;31.77;;;18.42;;
21018;SDS011;10667;51.056;3.732;2023-04-15T10:27:20;31.52;;;16.38;;
21018;SDS011;10667;51.056;3.732;2023-04-15T10:29:46;24.95;;;15.27;;
21018;SDS011;10667;51.056;3.732;2023-04-15T10:32:17;26.75;;;14.90;;
21018;SDS011;10667;51.056;3.732;2023-04-15T10:34:44;17.73;;;11.43;;
21018;SDS011;10667;51.056;3.732;2023-04-15T10:37:11;14.13;;;9.55;;
21018;SDS011;10667;51.056;3.732;2023-04-15T10:39:40;20.63;;;10.48;;
21018;SDS011;10667;51.056;3.732;2023-04-15T10:42:15;13.95;;;8.43;;
21018;SDS011;10667;51.056;3.732;2023-04-15T10:44:42;14.85;;;7.85;;
21018;SDS011;10667;51.056;3.732;2023-04-15T10:47:18;13.20;;;9.02;;
21018;SDS011;10667;51.056;3.732;2023-04-15T10:49:47;16.13;;;10.55;;
21018;SDS011;10667;51.056;3.732;2023-04-15T10:52:15;14.15;;;9.20;;
21018;SDS011;10667;51.056;3.732;2023-04-15T10:57:40;9.02;;;6.32;;
21018;SDS011;10667;51.056;3.732;2023-04-15T11:05:11;9.98;;;6.15;;
21018;SDS011;10667;51.056;3.732;2023-04-15T11:15:53;11.07;;;5.38;;
21018;SDS011;10667;51.056;3.732;2023-04-15T11:18:21;10.25;;;6.72;;
21018;SDS011;10667;51.056;3.732;2023-04-15T11:23:19;13.50;;;7.35;;
21018;SDS011;10667;51.056;3.732;2023-04-15T11:25:54;14.35;;;6.05;;
21018;SDS011;10667;51.056;3.732;2023-04-15T11:28:27;14.27;;;8.00;;
21018;SDS011;10667;51.056;3.732;2023-04-15T11:30:54;12.02;;;8.90;;
21018;SDS011;10667;51.056;3.732;2023-04-15T11:33:21;13.18;;;6.93;;
21018;SDS011;10667;51.056;3.732;2023-04-15T11:35:48;8.93;;;4.95;;
21018;SDS011;10667;51.056;3.732;2023-04-15T11:38:14;7.28;;;5.43;;
21018;SDS011;10667;51.056;3.732;2023-04-15T11:40:41;7.97;;;5.22;;
21018;SDS011;10667;51.056;3.732;2023-04-15T11:43:08;10.48;;;5.53;;
21018;SDS011;10667;51.056;3.732;2023-04-15T11:45:49;6.10;;;4.20;;
21018;SDS011;10667;51.056;3.732;2023-04-15T11:48:23;6.63;;;4.22;;
21018;SDS011;10667;51.056;3.732;2023-04-15T11:50:56;5.97;;;4.20;;
21018;SDS011;10667;51.056;3.732;2023-04-15T11:56:03;13.77;;;7.72;;
21018;SDS011;10667;51.056;3.732;2023-04-15T11:58:29;11.88;;;8.05;;
21018;SDS011;10667;51.056;3.732;2023-04-15T12:00:59;11.73;;;8.13;;
21018;SDS011;10667;51.056;3.732;2023-04-15T12:11:34;13.60;;;8.05;;
21018;SDS011;10667;51.056;3.732;2023-04-15T12:14:03;13.85;;;8.73;;
21018;SDS011;10667;51.056;3.732;2023-04-15T12:16:48;19.48;;;9.95;;
21018;SDS011;10667;51.056;3.732;2023-04-15T12:19:27;19.50;;;12.48;;
21018;SDS011;10667;51.056;3.732;2023-04-15T12:22:03;14.38;;;9.13;;
21018;SDS011;10667;51.056;3.732;2023-04-15T12:24:33;14.30;;;7.20;;
21018;SDS011;10667;51.056;3.732;2023-04-15T12:27:01;11.05;;;7.75;;
21018;SDS011;10667;51.056;3.732;2023-04-15T12:29:31;9.93;;;6.90;;
21018;SDS011;10667;51.056;3.732;2023-04-15T12:32:14;11.18;;;7.18;;
21018;SDS011;10667;51.056;3.732;2023-04-15T12:34:47;8.98;;;6.50;;
21018;SDS011;10667;51.056;3.732;2023-04-15T12:37:18;10.05;;;7.20;;
21018;SDS011;10667;51.056;3.732;2023-04-15T12:39:44;14.38;;;8.05;;
21018;SDS011;10667;51.056;3.732;2023-04-15T12:42:13;11.75;;;8.07;;
21018;SDS011;10667;51.056;3.732;2023-04-15T12:44:40;9.88;;;7.20;;
21018;SDS011;10667;51.056;3.732;2023-04-15T12:47:07;9.90;;;6.63;;
21018;SDS011;10667;51.056;3.732;2023-04-15T12:49:33;9.90;;;6.80;;
21018;SDS011;10667;51.056;3.732;2023-04-15T12:52:00;11.73;;;6.50;;
21018;SDS011;10667;51.056;3.732;2023-04-15T12:54:26;8.23;;;5.57;;
21018;SDS011;10667;51.056;3.732;2023-04-15T12:56:53;10.75;;;6.13;;
21018;SDS011;10667;51.056;3.732;2023-04-15T12:59:20;12.20;;;6.82;;
21018;SDS011;10667;51.056;3.732;2023-04-15T13:01:47;14.65;;;8.98;;
21018;SDS011;10667;51.056;3.732;2023-04-15T13:04:14;9.07;;;7.15;;
21018;SDS011;10667;51.056;3.732;2023-04-15T13:06:40;12.85;;;6.97;;
21018;SDS011;10667;51.056;3.732;2023-04-15T13:09:06;12.43;;;7.82;;
21018;SDS011;10667;51.056;3.732;2023-04-15T13:11:32;13.27;;;7.90;;
21018;SDS011;10667;51.056;3.732;2023-04-15T13:13:59;9.18;;;6.18;;
21018;SDS011;10667;51.056;3.732;2023-04-15T13:16:26;9.93;;;6.35;;
21018;SDS011;10667;51.056;3.732;2023-04-15T13:18:52;9.20;;;6.25;;
21018;SDS011;10667;51.056;3.732;2023-04-15T13:21:18;9.18;;;5.97;;
21018;SDS011;10667;51.056;3.732;2023-04-15T13:23:44;12.00;;;6.80;;
21018;SDS011;10667;51.056;3.732;2023-04-15T13:26:09;9.32;;;5.38;;
21018;SDS011;10667;51.056;3.732;2023-04-15T13:28:35;10.43;;;5.75;;
21018;SDS011;10667;51.056;3.732;2023-04-15T13:31:01;6.57;;;4.82;;
21018;SDS011;10667;51.056;3.732;2023-04-15T13:33:27;11.10;;;6.05;;
21018;SDS011;10667;51.056;3.732;2023-04-15T13:35:53;6.57;;;4.47;;
21018;SDS011;10667;51.056;3.732;2023-04-15T13:38:18;7.57;;;4.78;;
21018;SDS011;10667;51.056;3.732;2023-04-15T13:40:44;11.50;;;5.53;;
21018;SDS011;10667;51.056;3.732;2023-04-15T13:43:10;10.50;;;5.97;;
21018;SDS011;10667;51.056;3.732;2023-04-15T13:45:36;11.48;;;7.45;;
21018;SDS011;10667;51.056;3.732;2023-04-15T13:48:02;16.40;;;9.60;;
21018;SDS011;10667;51.056;3.732;2023-04-15T13:50:28;15.88;;;8.98;;
21018;SDS011;10667;51.056;3.732;2023-04-15T13:52:54;14.35;;;9.27;;
21018;SDS011;10667;51.056;3.732;2023-04-15T13:55:19;17.70;;;9.77;;
21018;SDS011;10667;51.056;3.732;2023-04-15T13:57:45;20.15;;;9.27;;
21018;SDS011;10667;51.056;3.732;2023-04-15T14:00:11;16.08;;;10.00;;
21018;SDS011;10667;51.056;3.732;2023-04-15T14:02:38;15.90;;;9.60;;
21018;SDS011;10667;51.056;3.732;2023-04-15T14:05:05;11.43;;;8.10;;
21018;SDS011;10667;51.056;3.732;2023-04-15T14:07:30;11.88;;;8.52;;
21018;SDS011;10667;51.056;3.732;2023-04-15T14:09:56;13.77;;;8.70;;
21018;SDS011;10667;51.056;3.732;2023-04-15T14:12:22;13.65;;;8.82;;
21018;SDS011;10667;51.056;3.732;2023-04-15T14:14:48;17.00;;;9.82;;
21018;SDS011;10667;51.056;3.732;2023-04-15T14:17:13;12.77;;;8.85;;
21018;SDS011;10667;51.056;3.732;2023-04-15T14:19:39;15.60;;;9.50;;
21018;SDS011;10667;51.056;3.732;2023-04-15T14:22:05;14.50;;;9.55;;
21018;SDS011;10667;51.056;3.732;2023-04-15T14:24:30;12.82;;;9.60;;
21018;SDS011;10667;51.056;3.732;2023-04-15T14:26:57;12.55;;;8.93;;
21018;SDS011;10667;51.056;3.732;2023-04-15T14:29:23;12.85;;;8.70;;
21018;SDS011;10667;51.056;3.732;2023-04-15T14:31:48;13.65;;;8.90;;
21018;SDS011;10667;51.056;3.732;2023-04-15T14:34:14;14.18;;;8.20;;
21018;SDS011;10667;51.056;3.732;2023-04-15T14:36:42;13.05;;;8.77;;
21018;SDS011;10667;51.056;3.732;2023-04-15T14:39:08;12.13;;;8.07;;
21018;SDS011;10667;51.056;3.732;2023-04-15T14:41:34;11.98;;;7.95;;
21018;SDS011;10667;51.056;3.732;2023-04-15T14:44:00;10.25;;;7.07;;
21018;SDS011;10667;51.056;3.732;2023-04-15T14:46:26;16.70;;;7.65;;
21018;SDS011;10667;51.056;3.732;2023-04-15T14:48:52;12.27;;;7.30;;
21018;SDS011;10667;51.056;3.732;2023-04-15T14:51:17;9.18;;;6.00;;
21018;SDS011;10667;51.056;3.732;2023-04-15T14:53:44;10.88;;;5.78;;
21018;SDS011;10667;51.056;3.732;2023-04-15T14:56:10;8.07;;;5.60;;
21018;SDS011;10667;51.056;3.732;2023-04-15T14:58:35;12.27;;;5.78;;
21018;SDS011;10667;51.056;3.732;2023-04-15T15:01:02;9.60;;;5.78;;
21018;SDS011;10667;51.056;3.732;2023-04-15T15:03:28;10.15;;;5.15;;